createdAt,value
2023-03-02T00:03:42.722Z,0
2023-03-02T00:14:21.438Z,0
2023-03-02T00:19:49.880Z,0
2023-03-02T00:30:19.904Z,0
2023-03-02T00:46:17.998Z,0
2023-03-02T00:56:55.748Z,0
2023-03-02T01:02:14.220Z,0
2023-03-02T01:07:43.854Z,0
2023-03-02T01:12:53.052Z,0
2023-03-02T01:18:13.127Z,0
2023-03-02T01:28:51.012Z,0
2023-03-02T01:39:28.932Z,0
2023-03-02T01:44:48.550Z,0
2023-03-02T01:55:27.041Z,0
2023-03-02T02:00:46.037Z,0
2023-03-02T02:11:25.101Z,0
2023-03-02T02:22:03.877Z,0
2023-03-02T02:27:22.950Z,0
2023-03-02T02:38:01.295Z,0
2023-03-02T02:53:59.947Z,0
2023-03-02T03:15:17.243Z,0
2023-03-02T03:20:36.413Z,0
2023-03-02T03:31:14.545Z,0
2023-03-02T03:47:11.839Z,0
2023-03-02T03:52:30.874Z,0
2023-03-02T03:57:50.182Z,0
2023-03-02T04:03:09.223Z,0
2023-03-02T04:13:47.490Z,0
2023-03-02T04:24:25.941Z,0
2023-03-02T04:29:45.829Z,0
2023-03-02T04:40:25.023Z,0
2023-03-02T04:45:44.818Z,0
2023-03-02T04:56:22.722Z,0
2023-03-02T05:12:20.158Z,0
2023-03-02T05:22:59.446Z,0
2023-03-02T05:28:18.588Z,0
2023-03-02T05:39:22.221Z,0
2023-03-02T05:44:41.898Z,0
2023-03-02T05:50:01.635Z,0
2023-03-02T05:55:21.175Z,6
2023-03-02T06:00:40.567Z,14
2023-03-02T06:11:20.016Z,20.58
2023-03-02T06:21:58.210Z,27.18
2023-03-02T06:27:17.675Z,30.87
2023-03-02T06:32:36.741Z,29.78
2023-03-02T06:37:55.665Z,28.7
2023-03-02T06:53:53.296Z,38.89
2023-03-02T07:04:33.093Z,43.82
2023-03-02T07:09:52.717Z,43.95
2023-03-02T07:15:11.943Z,44.65
2023-03-02T07:20:31.001Z,45.1
2023-03-02T07:25:50.037Z,49.34
2023-03-02T07:36:28.705Z,52.16
2023-03-02T07:52:26.403Z,63.12
2023-03-02T08:03:04.493Z,77.52
2023-03-02T08:08:23.155Z,84.37
2023-03-02T08:19:00.851Z,95.9
2023-03-02T08:29:38.985Z,301.73
2023-03-02T08:34:58.288Z,175.22
2023-03-02T08:45:36.266Z,274.42
2023-03-02T09:01:34.796Z,369.45
2023-03-02T09:06:53.675Z,492.09
2023-03-02T09:17:32.244Z,543.99
2023-03-02T09:28:09.848Z,299.48
2023-03-02T09:33:28.779Z,480.09
2023-03-02T09:38:47.626Z,596.02
2023-03-02T09:44:06.540Z,606.36
2023-03-02T09:54:45.150Z,163.13
2023-03-02T10:05:23.448Z,338.48
2023-03-02T10:10:42.294Z,446.37
2023-03-02T10:16:01.184Z,269.97
2023-03-02T10:21:20.239Z,294.29
2023-03-02T10:31:59.033Z,471.07
2023-03-02T10:37:18.033Z,208.67
2023-03-02T10:47:56.743Z,262.57
2023-03-02T11:03:54.350Z,89.18
2023-03-02T11:19:52.109Z,71.7
2023-03-02T11:30:30.918Z,600
2023-03-02T11:35:50.372Z,632.51
2023-03-02T11:46:28.287Z,16.49
2023-03-02T11:51:53.281Z,457.75
2023-03-02T11:57:06.673Z,338.69
2023-03-02T12:02:25.487Z,557.94
2023-03-02T12:13:04.090Z,411.55
2023-03-02T12:18:23.669Z,302.8
2023-03-02T12:29:01.712Z,313.08
2023-03-02T12:45:00.997Z,513.02
2023-03-02T12:55:40.233Z,556.51
2023-03-02T13:00:59.783Z,286.37
2023-03-02T13:11:38.092Z,240.83
2023-03-02T13:16:56.802Z,261.24
2023-03-02T13:27:34.961Z,94.61
2023-03-02T13:43:31.860Z,0.18
2023-03-02T13:59:30.423Z,408.23
2023-03-02T14:10:09.252Z,344.06
2023-03-02T14:15:28.539Z,356.59
2023-03-02T14:26:06.826Z,304.21
2023-03-02T14:31:25.811Z,255.37
2023-03-02T14:36:45.245Z,279.64
2023-03-02T14:42:04.013Z,239.65
2023-03-02T14:52:41.866Z,194.94
2023-03-02T15:08:39.172Z,140.56
2023-03-02T15:24:36.646Z,87.8
2023-03-02T15:35:14.231Z,67.79
2023-03-02T15:40:33.408Z,63.67
2023-03-02T15:51:11.303Z,47.17
2023-03-02T15:56:35.753Z,41.28
2023-03-02T16:07:09.074Z,64.58
2023-03-02T16:17:48.150Z,50.08
2023-03-02T16:23:07.537Z,47.99
2023-03-02T16:33:45.233Z,35.68
2023-03-02T16:44:23.441Z,30.68
2023-03-02T16:55:02.275Z,24.84
2023-03-02T17:00:21.593Z,24.92
2023-03-02T17:11:00.242Z,15
2023-03-02T17:16:19.461Z,6
2023-03-02T17:26:56.836Z,0
2023-03-02T17:42:57.410Z,0
2023-03-02T17:53:33.981Z,0
2023-03-02T17:58:53.343Z,0
2023-03-02T18:09:31.444Z,0
2023-03-02T18:25:28.663Z,0
2023-03-02T18:36:07.385Z,0
2023-03-02T18:41:26.206Z,0
2023-03-02T18:46:45.474Z,0
2023-03-02T18:52:05.044Z,0
2023-03-02T19:08:02.423Z,0
2023-03-02T19:18:40.908Z,0
2023-03-02T19:23:59.986Z,0
2023-03-02T19:34:38.496Z,0
2023-03-02T19:39:58.194Z,0
2023-03-02T19:45:18.444Z,0
2023-03-02T19:50:36.297Z,0
2023-03-02T20:06:34.181Z,0
2023-03-02T20:17:12.761Z,0
2023-03-02T20:33:11.037Z,0
2023-03-02T20:43:49.670Z,0
2023-03-02T20:49:08.832Z,0
2023-03-02T20:59:47.168Z,0
2023-03-02T21:05:06.544Z,0
2023-03-02T21:15:44.790Z,0
2023-03-02T21:31:42.963Z,0
2023-03-02T21:42:20.807Z,0
2023-03-02T21:47:39.941Z,0
2023-03-02T21:58:18.416Z,0
2023-03-02T22:03:37.542Z,0
2023-03-02T22:08:56.670Z,0
2023-03-02T22:14:15.490Z,0
2023-03-02T22:24:54.718Z,0
2023-03-02T22:30:14.318Z,0
2023-03-02T22:40:52.648Z,0
2023-03-02T22:51:31.038Z,0
2023-03-02T22:56:50.807Z,0
2023-03-02T23:07:29.808Z,0
2023-03-02T23:12:48.544Z,0
2023-03-02T23:23:52.863Z,0
2023-03-02T23:39:51.304Z,0
2023-03-02T23:50:29.415Z,0
